Time;durP1;ratioP1;P1;durP2;ratioP2;P2;SDS_P1;SDS_P2;PMS_P1;PMS_P2;Temp;Humidity;BMP_temperature;BMP_pressure;BME280_temperature;BME280_humidity;BME280_pressure;Samples;Min_cycle;Max_cycle;Signal;HPM_P1;HPM_P2
2023/10/29 00:00:52;;;;;;;5.37;1.43;;;;;;;10.74;100.00;99090.22;5016716;28;20218;-81
2023/10/29 00:03:18;;;;;;;4.87;1.70;;;;;;;10.73;100.00;99077.88;4999348;28;20209;-81
2023/10/29 00:05:45;;;;;;;3.70;1.90;;;;;;;10.76;100.00;99071.41;5011944;28;20227;-81
2023/10/29 00:08:13;;;;;;;2.43;1.33;;;;;;;10.77;100.00;99063.28;5026729;28;20208;-82
2023/10/29 00:10:39;;;;;;;3.60;1.60;;;;;;;10.75;100.00;99054.59;5005136;28;20221;-82
2023/10/29 00:13:06;;;;;;;4.73;1.70;;;;;;;10.76;100.00;99055.44;4995759;28;20649;-83
2023/10/29 00:15:33;;;;;;;5.50;2.37;;;;;;;10.77;100.00;99047.31;5010927;28;20327;-82
2023/10/29 00:18:00;;;;;;;2.53;1.70;;;;;;;10.75;100.00;99035.13;5011322;28;20233;-82
2023/10/29 00:20:26;;;;;;;3.13;1.40;;;;;;;10.75;100.00;99035.13;5023905;28;20221;-82
2023/10/29 00:22:53;;;;;;;2.07;1.47;;;;;;;10.76;100.00;99021.66;5002175;28;20212;-81
2023/10/29 00:25:21;;;;;;;1.77;1.37;;;;;;;10.79;100.00;99029.38;4997533;28;20245;-81
2023/10/29 00:27:47;;;;;;;4.20;1.30;;;;;;;10.81;100.00;99031.06;5000377;28;20222;-81
2023/10/29 00:30:14;;;;;;;4.20;1.30;;;;;;;10.79;100.00;99028.53;5000612;28;20237;-81
2023/10/29 00:32:40;;;;;;;2.10;1.27;;;;;;;10.79;100.00;99033.88;5006281;28;20670;-81
2023/10/29 00:35:08;;;;;;;3.93;1.43;;;;;;;10.80;100.00;99035.56;5008110;28;20228;-81
2023/10/29 00:37:35;;;;;;;2.43;1.20;;;;;;;10.82;100.00;99038.06;5001604;28;20205;-81
2023/10/29 00:40:02;;;;;;;2.57;1.17;;;;;;;10.82;100.00;99038.91;5007745;28;20213;-81
2023/10/29 00:42:29;;;;;;;4.03;1.23;;;;;;;10.86;100.00;99037.66;4996167;28;20257;-82
2023/10/29 00:44:56;;;;;;;2.50;1.40;;;;;;;10.87;100.00;99039.34;5003807;28;20236;-81
2023/10/29 00:47:23;;;;;;;3.07;1.10;;;;;;;10.89;100.00;99020.56;5000470;28;20211;-81
2023/10/29 00:49:49;;;;;;;1.73;1.00;;;;;;;10.91;100.00;99019.47;4998742;28;20215;-81
2023/10/29 00:52:17;;;;;;;3.90;1.50;;;;;;;10.90;100.00;99025.78;5014879;28;20228;-83
2023/10/29 00:54:44;;;;;;;1.53;1.10;;;;;;;10.91;100.00;99022.13;5023321;28;20201;-83
2023/10/29 00:57:12;;;;;;;6.20;1.80;;;;;;;10.94;100.00;99027.16;5009467;28;20216;-82
2023/10/29 00:59:40;;;;;;;2.17;1.27;;;;;;;10.97;100.00;99026.88;5003699;28;20220;-81
2023/10/29 01:02:06;;;;;;;4.23;1.10;;;;;;;10.98;100.00;99028.56;4992514;28;20216;-82
2023/10/29 01:04:33;;;;;;;2.40;1.13;;;;;;;11.01;100.00;99022.13;5008559;28;20217;-81
2023/10/29 01:06:59;;;;;;;3.20;1.00;;;;;;;11.04;100.00;99009.38;5007289;28;20234;-81
2023/10/29 01:09:26;;;;;;;1.80;1.30;;;;;;;11.02;100.00;99008.66;5007208;28;20224;-81
2023/10/29 01:11:52;;;;;;;2.20;1.00;;;;;;;11.03;100.00;99002.34;5009610;28;20214;-81
2023/10/29 01:14:19;;;;;;;3.90;1.20;;;;;;;11.01;100.00;98996.31;5008658;28;20210;-82
2023/10/29 01:16:47;;;;;;;3.87;1.33;;;;;;;11.06;100.00;98995.91;4999949;28;20234;-82
2023/10/29 01:19:13;;;;;;;3.17;1.53;;;;;;;11.04;100.00;98984.56;5001940;28;20217;-81
2023/10/29 01:21:39;;;;;;;1.67;1.00;;;;;;;11.06;100.00;98982.59;5002775;28;20209;-82
2023/10/29 01:24:07;;;;;;;2.60;1.23;;;;;;;11.08;100.00;98980.63;5005587;28;20218;-81
2023/10/29 01:26:34;;;;;;;1.23;0.97;;;;;;;11.09;100.00;98977.00;5008835;28;20231;-83
2023/10/29 01:29:00;;;;;;;2.30;0.90;;;;;;;11.09;100.00;98996.47;4996330;28;20205;-81
2023/10/29 01:31:27;;;;;;;2.43;1.20;;;;;;;11.11;100.00;98985.66;5011319;28;20211;-81
2023/10/29 01:33:54;;;;;;;1.90;0.87;;;;;;;11.17;100.00;98981.59;5002296;28;20209;-81
2023/10/29 01:36:21;;;;;;;1.93;1.10;;;;;;;11.20;100.00;98965.31;5008174;28;20241;-82
2023/10/29 01:38:47;;;;;;;3.33;1.40;;;;;;;11.22;100.00;98974.03;4993208;28;20206;-83
2023/10/29 01:41:14;;;;;;;2.67;1.03;;;;;;;11.20;100.00;98958.16;5002854;28;20215;-82
2023/10/29 01:43:40;;;;;;;3.70;1.37;;;;;;;11.21;100.00;98965.19;5000266;28;20224;-82
2023/10/29 01:46:06;;;;;;;0.93;0.83;;;;;;;11.23;100.00;98965.88;5000121;28;20239;-81
2023/10/29 01:48:33;;;;;;;1.00;0.90;;;;;;;11.22;100.00;98950.88;5000460;28;20215;-81
2023/10/29 01:51:06;;;;;;;2.60;0.90;;;;;;;11.25;100.00;98955.09;5004540;28;20206;-82
2023/10/29 01:53:32;;;;;;;2.40;1.23;;;;;;;11.24;100.00;98956.06;5001554;28;20197;-82
2023/10/29 01:55:58;;;;;;;1.83;1.07;;;;;;;11.27;100.00;98947.78;4995378;28;20234;-81
2023/10/29 01:58:25;;;;;;;2.50;1.00;;;;;;;11.28;100.00;98938.81;5008836;28;20211;-80
2023/10/29 02:00:55;;;;;;;2.17;1.03;;;;;;;11.27;100.00;98943.31;5022341;28;20210;-81
2023/10/29 02:03:21;;;;;;;3.13;1.13;;;;;;;11.30;100.00;98935.00;5007330;28;20213;-82
2023/10/29 02:05:48;;;;;;;1.93;1.17;;;;;;;11.31;100.00;98922.53;5004333;28;20236;-81
2023/10/29 02:08:15;;;;;;;3.93;1.00;;;;;;;11.30;100.00;98931.50;5001858;28;20214;-81
2023/10/29 02:10:42;;;;;;;2.43;1.10;;;;;;;11.28;100.00;98917.50;5027002;28;20196;-81
2023/10/29 02:13:08;;;;;;;2.90;1.00;;;;;;;11.28;100.00;98917.50;5024692;28;20221;-81
2023/10/29 02:15:35;;;;;;;2.53;0.90;;;;;;;11.31;100.00;98915.38;5011732;28;20230;-81
2023/10/29 02:18:01;;;;;;;5.67;1.83;;;;;;;11.34;100.00;98911.56;5008772;28;20210;-81
2023/10/29 02:20:28;;;;;;;3.17;0.87;;;;;;;11.34;100.00;98890.25;5005178;28;20201;-83
2023/10/29 02:22:55;;;;;;;2.57;0.90;;;;;;;11.36;100.00;98889.13;5000605;28;20223;-81
2023/10/29 02:25:22;;;;;;;1.20;0.80;;;;;;;11.39;100.00;98894.19;5004192;28;20239;-83
2023/10/29 02:27:48;;;;;;;2.93;0.90;;;;;;;11.43;100.00;98894.72;5012747;28;20211;-83
2023/10/29 02:30:15;;;;;;;1.77;1.00;;;;;;;11.44;100.00;98889.25;5011084;28;20221;-81
2023/10/29 02:32:42;;;;;;;1.53;0.90;;;;;;;11.47;100.00;98877.44;5006575;28;20216;-81
2023/10/29 02:35:08;;;;;;;1.70;0.90;;;;;;;11.52;100.00;98869.84;5011288;28;20223;-81
2023/10/29 02:37:35;;;;;;;1.63;0.97;;;;;;;11.51;100.00;98870.00;5004853;28;20271;-81
2023/10/29 02:40:03;;;;;;;1.90;0.80;;;;;;;11.49;100.00;98875.47;5028010;28;20668;-81
2023/10/29 02:42:30;;;;;;;3.87;1.13;;;;;;;11.52;100.00;98871.69;5021166;28;20687;-80
2023/10/29 02:44:58;;;;;;;2.20;0.83;;;;;;;11.51;100.00;98870.84;5000223;28;20203;-81
2023/10/29 02:47:25;;;;;;;1.70;0.80;;;;;;;11.52;100.00;98875.19;5007789;28;20597;-82
2023/10/29 02:49:51;;;;;;;2.90;1.07;;;;;;;11.52;100.00;98877.84;5021811;28;20220;-80
2023/10/29 02:52:18;;;;;;;2.50;0.93;;;;;;;11.53;100.00;98874.19;5010978;28;20232;-81
2023/10/29 02:54:44;;;;;;;1.33;0.90;;;;;;;11.53;100.00;98871.53;5005966;28;20203;-81
2023/10/29 02:57:13;;;;;;;1.53;0.80;;;;;;;11.56;100.00;98881.06;5005136;28;20212;-82
2023/10/29 02:59:39;;;;;;;1.60;0.90;;;;;;;11.55;100.00;98861.56;5000279;28;20268;-83
2023/10/29 03:02:06;;;;;;;1.73;0.77;;;;;;;11.56;100.00;98851.75;5004610;28;20211;-82
2023/10/29 03:04:34;;;;;;;3.00;0.97;;;;;;;11.61;100.00;98862.81;5011945;28;20748;-81
2023/10/29 03:07:00;;;;;;;2.70;0.90;;;;;;;11.62;100.00;98867.16;5032205;28;20230;-81
2023/10/29 03:09:27;;;;;;;1.87;0.67;;;;;;;11.61;100.00;98855.66;5020510;28;20675;-81
2023/10/29 03:11:53;;;;;;;1.70;0.60;;;;;;;11.65;100.00;98845.50;4998773;28;20207;-82
2023/10/29 03:14:21;;;;;;;2.37;0.90;;;;;;;11.67;100.00;98841.72;5000374;28;20436;-83
2023/10/29 03:16:48;;;;;;;1.33;0.70;;;;;;;11.68;100.00;98824.72;5007863;28;20221;-82
2023/10/29 03:19:14;;;;;;;4.23;0.80;;;;;;;11.70;100.00;98824.56;5003294;28;20579;-81
2023/10/29 03:21:41;;;;;;;1.27;0.80;;;;;;;11.71;100.00;98812.94;5006018;28;20694;-82
2023/10/29 03:24:08;;;;;;;1.20;0.63;;;;;;;11.71;100.00;98803.09;5005352;28;20203;-82
2023/10/29 03:26:34;;;;;;;1.70;0.90;;;;;;;11.71;100.00;98805.75;5007727;28;20233;-81
2023/10/29 03:29:01;;;;;;;4.47;0.80;;;;;;;11.75;100.00;98817.81;4998298;28;20211;-81
2023/10/29 03:31:28;;;;;;;1.87;0.70;;;;;;;11.76;100.00;98811.53;4992539;28;20226;-81
2023/10/29 03:33:55;;;;;;;2.13;0.70;;;;;;;11.77;100.00;98815.03;5007164;28;20210;-81
2023/10/29 03:36:21;;;;;;;2.63;0.90;;;;;;;11.83;100.00;98811.75;5001413;28;20226;-81
2023/10/29 03:38:48;;;;;;;1.37;0.70;;;;;;;11.88;100.00;98805.97;4992062;28;20217;-81
2023/10/29 03:41:22;;;;;;;3.17;0.70;;;;;;;11.91;100.00;98821.69;4997517;28;20559;-82
2023/10/29 03:43:49;;;;;;;2.83;0.80;;;;;;;11.87;100.00;98802.47;4995743;28;20258;-83
2023/10/29 03:46:15;;;;;;;4.23;1.27;;;;;;;11.88;100.00;98798.81;4997956;28;20229;-81
2023/10/29 03:48:45;;;;;;;1.43;0.80;;;;;;;11.89;100.00;98811.16;5005468;28;20207;-82
2023/10/29 03:51:11;;;;;;;2.60;1.03;;;;;;;11.92;100.00;98799.34;5001823;28;20242;-80
2023/10/29 03:53:38;;;;;;;1.97;0.70;;;;;;;12.00;100.00;98791.47;5008187;28;20221;-82
2023/10/29 03:56:04;;;;;;;1.43;0.53;;;;;;;12.00;100.00;98780.78;5004494;28;20245;-81
2023/10/29 03:58:31;;;;;;;1.13;0.70;;;;;;;12.07;100.00;98784.50;5009453;28;20203;-81
2023/10/29 04:00:57;;;;;;;1.47;0.90;;;;;;;12.09;100.00;98782.53;5014777;28;20539;-84
2023/10/29 04:03:24;;;;;;;1.87;0.90;;;;;;;12.07;100.00;98765.81;5011537;28;20217;-82
2023/10/29 04:05:52;;;;;;;1.17;0.70;;;;;;;12.09;100.00;98766.50;5009429;28;20231;-82
2023/10/29 04:08:18;;;;;;;3.57;1.43;;;;;;;12.12;100.00;98771.56;5005893;28;20209;-83
2023/10/29 04:10:45;;;;;;;1.90;0.73;;;;;;;12.15;100.00;98764.09;5002983;28;20212;-81
2023/10/29 04:13:11;;;;;;;2.53;0.70;;;;;;;12.14;100.00;98758.91;5026517;28;20678;-82
2023/10/29 04:15:38;;;;;;;1.20;0.70;;;;;;;12.16;100.00;98752.41;5001691;28;20222;-84
2023/10/29 04:18:04;;;;;;;2.97;0.70;;;;;;;12.19;100.00;98759.25;5011381;28;20221;-82
2023/10/29 04:20:31;;;;;;;1.97;0.80;;;;;;;12.22;100.00;98753.63;5004632;28;20293;-82
2023/10/29 04:22:59;;;;;;;3.50;0.80;;;;;;;12.28;100.00;98746.84;5016125;28;20203;-82
2023/10/29 04:25:25;;;;;;;1.37;0.90;;;;;;;12.25;100.00;98731.13;5003762;28;20235;-81
2023/10/29 04:27:51;;;;;;;1.63;0.60;;;;;;;12.26;100.00;98735.47;5012986;28;20203;-83
2023/10/29 04:30:18;;;;;;;2.23;0.70;;;;;;;12.29;100.00;98743.19;4998670;28;20212;-82
2023/10/29 04:32:44;;;;;;;3.70;0.83;;;;;;;12.28;100.00;98736.16;5008866;28;20605;-83
2023/10/29 04:35:11;;;;;;;1.47;0.80;;;;;;;12.30;100.00;98724.34;4996521;28;20223;-82
2023/10/29 04:37:37;;;;;;;1.13;0.70;;;;;;;12.34;100.00;98724.88;5011060;28;20201;-80
2023/10/29 04:40:07;;;;;;;1.80;0.50;;;;;;;12.35;100.00;98727.41;5006473;28;20213;-82
2023/10/29 04:42:33;;;;;;;1.83;0.90;;;;;;;12.39;100.00;98718.06;5004154;28;20206;-81
2023/10/29 04:45:00;;;;;;;2.40;0.90;;;;;;;12.39;100.00;98707.38;5003093;28;20231;-81
2023/10/29 04:47:26;;;;;;;2.83;0.80;;;;;;;12.42;100.00;98696.38;5007890;28;20227;-82
2023/10/29 04:49:52;;;;;;;0.57;0.40;;;;;;;12.43;100.00;98683.88;5005485;28;20208;-82
2023/10/29 04:52:19;;;;;;;1.27;1.03;;;;;;;12.44;100.00;98682.88;5006614;28;20219;-82
2023/10/29 04:54:46;;;;;;;2.03;1.10;;;;;;;12.42;100.00;98663.50;5007458;28;20203;-83
2023/10/29 04:57:14;;;;;;;2.47;0.70;;;;;;;12.41;100.00;98656.50;5017671;28;20209;-81
2023/10/29 04:59:40;;;;;;;2.10;0.80;;;;;;;12.43;100.00;98657.19;5010975;28;20219;-82
2023/10/29 05:02:07;;;;;;;1.57;0.67;;;;;;;12.47;100.00;98662.06;5000512;28;20237;-81
2023/10/29 05:04:33;;;;;;;1.17;0.60;;;;;;;12.44;100.00;98672.22;5008968;28;20207;-83
2023/10/29 05:06:59;;;;;;;2.60;0.67;;;;;;;12.45;100.00;98676.56;5007826;28;20234;-82
2023/10/29 05:09:26;;;;;;;1.77;0.60;;;;;;;12.45;100.00;98669.38;5007643;28;20219;-83
2023/10/29 05:11:52;;;;;;;1.33;0.80;;;;;;;12.50;100.00;98664.41;5002384;28;20239;-82
2023/10/29 05:14:20;;;;;;;1.07;0.50;;;;;;;12.51;100.00;98675.94;5009035;28;20228;-82
2023/10/29 05:16:47;;;;;;;1.40;0.80;;;;;;;12.50;100.00;98669.75;5011163;28;20224;-82
2023/10/29 05:19:14;;;;;;;3.40;0.80;;;;;;;12.51;100.00;98673.28;5004337;28;20207;-82
2023/10/29 05:21:40;;;;;;;3.93;0.63;;;;;;;12.50;100.00;98680.44;5005657;28;20215;-81
2023/10/29 05:24:08;;;;;;;1.43;0.67;;;;;;;12.54;100.00;98674.78;5004426;28;20211;-83
2023/10/29 05:26:36;;;;;;;2.30;0.80;;;;;;;12.51;100.00;98682.13;5008591;28;20235;-82
2023/10/29 05:29:03;;;;;;;1.20;0.63;;;;;;;12.52;100.00;98683.78;5005658;28;20227;-82
2023/10/29 05:31:31;;;;;;;2.87;0.87;;;;;;;12.48;100.00;98690.44;5001077;28;20210;-83
2023/10/29 05:33:57;;;;;;;0.83;0.70;;;;;;;12.50;100.00;98677.78;5006014;28;20207;-82
2023/10/29 05:36:24;;;;;;;1.73;0.80;;;;;;;12.52;100.00;98686.47;5006586;28;20223;-84
2023/10/29 05:38:50;;;;;;;2.80;1.20;;;;;;;12.50;100.00;98684.94;5006943;28;20214;-81
2023/10/29 05:41:18;;;;;;;1.73;0.60;;;;;;;12.51;100.00;98702.63;5003868;28;20294;-81
2023/10/29 05:43:44;;;;;;;0.67;0.67;;;;;;;12.51;100.00;98716.84;5007694;28;20199;-83
2023/10/29 05:46:12;;;;;;;3.17;1.20;;;;;;;12.54;100.00;98733.53;5015261;28;20236;-83
2023/10/29 05:48:40;;;;;;;1.47;0.67;;;;;;;12.57;100.00;98730.53;5006994;28;20207;-82
2023/10/29 05:51:10;;;;;;;1.10;0.53;;;;;;;12.59;100.00;98725.88;5013757;28;20229;-81
2023/10/29 05:53:38;;;;;;;2.47;0.70;;;;;;;12.57;100.00;98733.19;5005767;28;20581;-81
2023/10/29 05:56:05;;;;;;;2.60;0.70;;;;;;;12.55;100.00;98730.69;5004572;28;21476;-82
2023/10/29 05:58:31;;;;;;;1.73;1.00;;;;;;;12.59;100.00;98707.19;4998144;28;20212;-82
2023/10/29 06:00:58;;;;;;;1.83;0.60;;;;;;;12.58;100.00;98682.31;5000519;28;20206;-82
2023/10/29 06:03:25;;;;;;;1.23;0.60;;;;;;;12.61;100.00;98698.03;5008211;28;20276;-82
2023/10/29 06:05:54;;;;;;;3.40;1.27;;;;;;;12.64;100.00;98695.03;4999860;28;20730;-82
2023/10/29 06:08:21;;;;;;;1.57;0.60;;;;;;;12.65;100.00;98677.19;5003886;28;20226;-82
2023/10/29 06:10:49;;;;;;;1.53;0.80;;;;;;;12.64;100.00;98679.00;5007631;28;20862;-82
2023/10/29 06:13:16;;;;;;;0.77;0.77;;;;;;;12.60;100.00;98693.66;5005061;28;20228;-82
2023/10/29 06:15:42;;;;;;;0.73;0.60;;;;;;;12.64;100.00;98705.72;5003278;28;20236;-83
2023/10/29 06:18:09;;;;;;;0.80;0.60;;;;;;;12.66;100.00;98719.75;5002623;28;20579;-82
2023/10/29 06:20:35;;;;;;;2.13;0.60;;;;;;;12.70;100.00;98723.81;5001320;28;20218;-82
2023/10/29 06:23:03;;;;;;;1.33;0.70;;;;;;;12.74;100.00;98722.47;5004215;28;20222;-83
2023/10/29 06:25:29;;;;;;;1.57;0.60;;;;;;;12.78;100.00;98739.84;5009388;28;20861;-83
2023/10/29 06:27:56;;;;;;;1.60;0.70;;;;;;;12.80;100.00;98729.84;5006713;28;20223;-84
2023/10/29 06:30:22;;;;;;;1.37;0.53;;;;;;;12.79;100.00;98724.66;5032593;28;20215;-82
2023/10/29 06:32:49;;;;;;;3.47;0.90;;;;;;;12.80;100.00;98729.03;5006519;28;20213;-84
2023/10/29 06:35:15;;;;;;;1.20;0.53;;;;;;;12.85;100.00;98718.69;5006515;28;20221;-82
2023/10/29 06:37:42;;;;;;;2.77;0.93;;;;;;;12.90;100.00;98752.97;4996446;28;20280;-82
2023/10/29 06:40:10;;;;;;;1.20;0.70;;;;;;;12.90;100.00;98750.31;4999450;28;20207;-81
2023/10/29 06:42:37;;;;;;;1.20;0.90;;;;;;;12.90;100.00;98753.78;4999665;28;20199;-83
2023/10/29 06:45:05;;;;;;;2.43;0.73;;;;;;;12.90;99.96;98729.72;5001794;28;20231;-82
2023/10/29 06:47:32;;;;;;;0.90;0.60;;;;;;;12.95;99.84;98735.44;5001989;28;20239;-81
2023/10/29 06:49:58;;;;;;;2.27;0.57;;;;;;;12.95;99.63;98735.44;4997651;28;20231;-82
2023/10/29 06:52:25;;;;;;;3.60;1.70;;;;;;;13.02;98.11;98757.88;5003312;28;20231;-82
2023/10/29 06:54:53;;;;;;;1.23;0.70;;;;;;;13.03;98.05;98748.88;5002219;28;20212;-83
2023/10/29 06:57:21;;;;;;;0.67;0.57;;;;;;;13.06;98.18;98747.72;5004632;28;20201;-83
2023/10/29 06:59:47;;;;;;;1.37;0.57;;;;;;;13.05;98.42;98741.53;5000761;28;20205;-82
2023/10/29 07:02:14;;;;;;;2.20;0.50;;;;;;;13.04;98.36;98744.38;4995707;28;20216;-82
2023/10/29 07:04:40;;;;;;;1.90;0.70;;;;;;;13.04;98.34;98755.88;5003224;28;20298;-82
2023/10/29 07:07:07;;;;;;;4.07;1.10;;;;;;;13.06;97.77;98747.72;5001715;28;20232;-82
2023/10/29 07:09:33;;;;;;;2.37;0.60;;;;;;;13.09;97.09;98734.00;5007066;28;20203;-82
2023/10/29 07:11:59;;;;;;;1.13;1.03;;;;;;;13.10;96.64;98754.41;5006677;28;20218;-83
2023/10/29 07:14:27;;;;;;;2.97;1.17;;;;;;;13.09;97.27;98748.22;5005511;28;20218;-81
2023/10/29 07:16:54;;;;;;;2.37;1.10;;;;;;;13.13;96.88;98748.72;5003684;28;20565;-83
2023/10/29 07:19:20;;;;;;;1.60;0.70;;;;;;;13.23;94.80;98736.13;4997324;28;21477;-81
2023/10/29 07:21:47;;;;;;;1.53;0.60;;;;;;;13.27;95.33;98733.94;5000534;28;20207;-82
2023/10/29 07:24:13;;;;;;;1.53;0.80;;;;;;;13.32;94.06;98732.47;5000294;28;20765;-83
2023/10/29 07:26:40;;;;;;;1.90;0.60;;;;;;;13.34;94.12;98740.34;5005526;28;20231;-82
2023/10/29 07:29:16;;;;;;;2.30;1.10;;;;;;;13.37;94.32;98735.53;5005403;28;20272;-81
2023/10/29 07:31:44;;;;;;;1.80;0.70;;;;;;;13.33;93.65;98742.19;5008532;28;20214;-82
2023/10/29 07:34:10;;;;;;;1.60;0.60;;;;;;;13.35;93.27;98745.53;5007073;28;20208;-82
2023/10/29 07:36:37;;;;;;;1.97;0.73;;;;;;;13.40;92.67;98750.41;5002022;28;20239;-81
2023/10/29 07:39:03;;;;;;;1.13;0.50;;;;;;;13.41;92.31;98741.38;5001513;28;20222;-81
2023/10/29 07:41:30;;;;;;;1.30;0.70;;;;;;;13.42;92.46;98733.22;4998613;28;20298;-83
2023/10/29 07:43:56;;;;;;;2.27;0.60;;;;;;;13.43;92.29;98740.22;5005645;28;20208;-82
2023/10/29 07:46:23;;;;;;;1.27;0.50;;;;;;;13.45;91.88;98742.72;5005039;28;20231;-82
2023/10/29 07:48:50;;;;;;;1.13;0.60;;;;;;;13.48;91.45;98740.56;5000751;28;20220;-81
2023/10/29 07:51:17;;;;;;;2.23;0.67;;;;;;;13.48;91.96;98737.88;5015900;28;20214;-81
2023/10/29 07:53:43;;;;;;;1.40;0.60;;;;;;;13.51;91.85;98742.91;5005553;28;20207;-82
2023/10/29 07:56:11;;;;;;;1.13;0.80;;;;;;;13.55;90.61;98741.59;5003843;28;20610;-82
2023/10/29 07:58:38;;;;;;;1.17;0.57;;;;;;;13.57;90.34;98737.94;5005147;28;20279;-82
2023/10/29 08:01:10;;;;;;;2.87;0.97;;;;;;;13.55;91.08;98722.03;5002318;28;20211;-82
2023/10/29 08:03:37;;;;;;;1.27;0.80;;;;;;;13.55;91.51;98728.22;5006374;28;20210;-82
2023/10/29 08:06:05;;;;;;;1.33;0.63;;;;;;;13.53;91.70;98745.44;5009231;28;20242;-82
2023/10/29 08:08:31;;;;;;;0.80;0.50;;;;;;;13.52;90.80;98741.09;5001625;28;20863;-83
2023/10/29 08:10:58;;;;;;;0.63;0.63;;;;;;;13.53;90.68;98746.28;4997817;28;20214;-82
2023/10/29 08:13:24;;;;;;;1.03;0.63;;;;;;;13.54;90.26;98736.41;5001918;28;20207;-82
2023/10/29 08:15:51;;;;;;;3.73;2.23;;;;;;;13.54;90.84;98739.09;5006130;28;20260;-82
2023/10/29 08:18:17;;;;;;;3.83;0.70;;;;;;;13.53;89.77;98746.28;5001550;28;20213;-82
2023/10/29 08:20:44;;;;;;;1.73;0.60;;;;;;;13.57;89.29;98756.66;5006377;28;20214;-81
2023/10/29 08:23:12;;;;;;;1.70;0.70;;;;;;;13.61;88.91;98760.69;5001410;28;20208;-82
2023/10/29 08:25:38;;;;;;;1.87;0.70;;;;;;;13.60;88.90;98757.16;5003474;28;20715;-82
2023/10/29 08:28:08;;;;;;;2.13;0.60;;;;;;;13.61;88.73;98768.72;5007522;28;20250;-82
2023/10/29 08:30:35;;;;;;;1.47;0.80;;;;;;;13.65;88.94;98756.66;5008444;28;20214;-82
2023/10/29 08:33:01;;;;;;;1.33;0.53;;;;;;;13.66;88.84;98767.19;5009215;28;20199;-83
2023/10/29 08:35:28;;;;;;;1.23;0.40;;;;;;;13.70;87.67;98752.50;5006151;28;20233;-82
2023/10/29 08:37:54;;;;;;;2.23;1.10;;;;;;;13.73;88.20;98754.03;5012617;28;20199;-82
2023/10/29 08:40:22;;;;;;;2.00;0.50;;;;;;;13.78;87.97;98749.88;5013124;28;20207;-81
2023/10/29 08:42:48;;;;;;;1.00;0.50;;;;;;;13.77;88.04;98758.88;5007298;28;20218;-83
2023/10/29 08:45:15;;;;;;;0.60;0.50;;;;;;;13.81;87.42;98744.16;5005508;28;20230;-82
2023/10/29 08:47:41;;;;;;;1.50;0.30;;;;;;;13.82;87.03;98731.63;5005983;28;20231;-82
2023/10/29 08:50:09;;;;;;;2.23;0.83;;;;;;;13.86;87.14;98749.88;4998839;28;20199;-82
2023/10/29 08:52:35;;;;;;;0.40;0.37;;;;;;;13.86;86.97;98747.19;5007346;28;20207;-83
2023/10/29 08:55:03;;;;;;;2.30;0.50;;;;;;;13.92;87.30;98743.03;5004469;28;20722;-82
2023/10/29 08:57:31;;;;;;;1.33;0.57;;;;;;;13.89;86.29;98754.91;5005954;28;20622;-83
2023/10/29 08:59:58;;;;;;;2.10;0.60;;;;;;;13.94;87.02;98748.22;5004837;28;20203;-82
2023/10/29 09:02:25;;;;;;;1.27;0.40;;;;;;;13.98;86.20;98770.94;5005150;28;20226;-82
2023/10/29 09:04:56;;;;;;;1.23;0.40;;;;;;;14.00;86.73;98775.16;5008803;28;20207;-82
2023/10/29 09:07:23;;;;;;;2.20;0.40;;;;;;;14.05;86.51;98783.53;5018494;28;20582;-82
2023/10/29 09:09:50;;;;;;;1.60;0.80;;;;;;;14.09;86.92;98800.09;5003302;28;20413;-82
2023/10/29 09:12:16;;;;;;;1.20;0.70;;;;;;;14.09;87.54;98818.84;5001100;28;21493;-82
2023/10/29 09:14:44;;;;;;;1.77;0.60;;;;;;;14.14;87.07;98821.88;5003806;28;20216;-82
2023/10/29 09:17:11;;;;;;;0.60;0.40;;;;;;;14.25;86.28;98818.88;5003264;28;20572;-82
2023/10/29 09:19:37;;;;;;;0.43;0.30;;;;;;;14.41;85.16;98835.00;5004260;28;20627;-83
2023/10/29 09:22:04;;;;;;;0.50;0.50;;;;;;;14.54;84.38;98837.16;5004061;28;20213;-82
2023/10/29 09:24:33;;;;;;;1.37;0.57;;;;;;;14.62;84.81;98839.03;5003297;28;20212;-82
2023/10/29 09:26:59;;;;;;;1.00;0.60;;;;;;;14.78;84.06;98833.66;5006810;28;20313;-82
2023/10/29 09:29:29;;;;;;;1.07;0.37;;;;;;;14.87;83.36;98852.25;5002078;28;20209;-83
2023/10/29 09:31:58;;;;;;;2.23;0.70;;;;;;;14.97;83.55;98854.78;5006177;28;20578;-83
2023/10/29 09:34:24;;;;;;;1.10;0.50;;;;;;;15.08;82.96;98846.38;5001705;28;20242;-82
2023/10/29 09:36:51;;;;;;;0.73;0.57;;;;;;;15.18;82.44;98849.72;5005002;28;20228;-83
2023/10/29 09:39:17;;;;;;;0.70;0.50;;;;;;;15.27;82.03;98847.84;5007109;28;20225;-83
2023/10/29 09:41:44;;;;;;;1.40;0.37;;;;;;;15.37;80.67;98828.91;5006664;28;20789;-82
2023/10/29 09:44:17;;;;;;;0.60;0.40;;;;;;;15.36;80.03;98837.97;5004027;28;20211;-83
2023/10/29 09:46:46;;;;;;;1.83;0.40;;;;;;;15.36;80.59;98840.63;5001668;28;20785;-82
2023/10/29 09:49:15;;;;;;;1.40;0.53;;;;;;;15.33;80.11;98849.84;5003829;28;20618;-82
2023/10/29 09:51:42;;;;;;;0.57;0.43;;;;;;;15.36;80.36;98868.28;5004403;28;20220;-82
2023/10/29 09:54:09;;;;;;;0.90;0.60;;;;;;;15.34;80.58;98877.53;5003916;28;20269;-82
2023/10/29 09:56:36;;;;;;;0.50;0.50;;;;;;;15.32;81.48;98874.16;5007516;28;20224;-82
2023/10/29 09:59:05;;;;;;;1.30;0.50;;;;;;;15.32;80.63;98888.41;5003679;28;20206;-82
2023/10/29 10:01:31;;;;;;;1.10;0.40;;;;;;;15.33;80.94;98892.78;5002321;28;20237;-82
2023/10/29 10:03:57;;;;;;;1.07;0.50;;;;;;;15.33;80.82;98899.97;4997014;28;20205;-82
2023/10/29 10:06:26;;;;;;;0.97;0.80;;;;;;;15.33;81.31;98916.06;5001942;28;20229;-82
2023/10/29 10:08:57;;;;;;;0.33;0.33;;;;;;;15.34;81.01;98894.44;5004951;28;20232;-82
2023/10/29 10:11:24;;;;;;;1.73;0.80;;;;;;;15.33;80.00;98910.72;5004202;28;20799;-83
2023/10/29 10:13:51;;;;;;;1.20;1.00;;;;;;;15.30;81.56;98909.19;4999806;28;20293;-82
2023/10/29 10:16:19;;;;;;;0.90;0.40;;;;;;;15.28;82.17;98904.00;5012286;28;20226;-83
2023/10/29 10:18:54;;;;;;;2.83;0.87;;;;;;;15.29;80.39;98900.31;5003537;28;20211;-83
2023/10/29 10:21:42;;;;;;;0.40;0.30;;;;;;;15.27;80.25;98904.16;5007481;28;20210;-82
2023/10/29 10:24:14;;;;;;;1.37;0.67;;;;;;;15.27;80.74;98896.97;5007431;28;20296;-82
2023/10/29 10:26:41;;;;;;;1.60;0.50;;;;;;;15.28;80.59;98900.47;5001585;28;20240;-82
2023/10/29 10:29:09;;;;;;;0.83;0.53;;;;;;;15.27;80.31;98910.38;5003844;28;20228;-83
2023/10/29 10:31:36;;;;;;;1.03;0.50;;;;;;;15.24;80.52;98913.38;5015488;28;20212;-82
2023/10/29 10:34:13;;;;;;;1.33;0.70;;;;;;;15.24;80.65;98921.44;5002773;28;20235;-82
2023/10/29 10:36:41;;;;;;;2.43;0.60;;;;;;;15.26;80.61;98908.69;5014747;28;20719;-82
2023/10/29 10:39:08;;;;;;;1.53;0.50;;;;;;;15.25;80.52;98917.75;5008660;28;20307;-83
2023/10/29 10:41:41;;;;;;;1.00;0.33;;;;;;;15.26;79.23;98908.69;5002797;28;20205;-82
2023/10/29 10:44:09;;;;;;;1.50;0.50;;;;;;;15.26;79.26;98897.97;5000915;28;20223;-82
2023/10/29 10:46:37;;;;;;;1.57;0.40;;;;;;;15.25;79.18;98907.03;5028049;28;20750;-82
2023/10/29 10:49:06;;;;;;;1.40;0.40;;;;;;;15.25;79.35;98901.66;5005478;28;20243;-82
2023/10/29 10:51:34;;;;;;;1.00;0.30;;;;;;;15.31;79.04;98904.69;5005594;28;20220;-82
2023/10/29 10:54:03;;;;;;;0.93;0.60;;;;;;;15.30;78.95;98895.78;5007993;28;20199;-81
2023/10/29 10:56:32;;;;;;;3.93;1.50;;;;;;;15.36;78.91;98895.13;5002242;28;20232;-81
2023/10/29 10:59:01;;;;;;;0.97;0.50;;;;;;;15.37;78.11;98887.91;5002642;28;20206;-81
2023/10/29 11:01:28;;;;;;;2.60;0.70;;;;;;;15.39;78.69;98891.25;4997923;28;20205;-82
2023/10/29 11:03:56;;;;;;;0.93;0.60;;;;;;;15.42;78.56;98878.31;5003490;28;20213;-81
2023/10/29 11:06:23;;;;;;;1.13;0.60;;;;;;;15.40;78.66;98880.38;5001770;28;20225;-81
2023/10/29 11:08:50;;;;;;;1.37;0.50;;;;;;;15.44;79.19;98880.84;4999462;28;20221;-81
2023/10/29 11:11:18;;;;;;;0.70;0.40;;;;;;;15.46;78.75;98879.66;5002320;28;20393;-82
2023/10/29 11:13:45;;;;;;;0.83;0.40;;;;;;;15.47;78.79;98885.88;5006085;28;20253;-82
2023/10/29 11:16:22;;;;;;;0.73;0.40;;;;;;;15.48;79.24;98887.53;5003146;28;20232;-82
2023/10/29 11:18:48;;;;;;;1.57;0.40;;;;;;;15.46;78.96;98911.84;5001534;28;20205;-82
2023/10/29 11:21:30;;;;;;;0.80;0.50;;;;;;;15.49;78.74;98903.47;5000757;28;20216;-83
2023/10/29 11:24:18;;;;;;;1.80;0.73;;;;;;;15.47;78.41;98910.00;4997289;28;20235;-82
2023/10/29 11:26:46;;;;;;;0.33;0.30;;;;;;;15.49;79.21;98899.94;5023750;28;20932;-83
2023/10/29 11:29:43;;;;;;;0.70;0.30;;;;;;;15.47;79.20;98905.47;5002958;28;20224;-82